To NAV CANADA Home Page Login to a new session Search on AWWS site Feedback and Comments Disclaimer Vers la page française équivalente Tips FAQ What's new on the site To the Forecasts and Observations / NOTAM section To "File a Flight Plan" website Publications and other links Update of the User's profile FIC Telephone Numbers My Weather Data Folder Route Weather Data Regional Weather Data Local Weather Data To the Forecasts and Observations / NOTAM section
Request Generated 04/30/2017 at 20:32:55 UTC . Weather information available at that time is displayed.

METAR/TAF

BRANDON MUNICIPALITY/MB    

METAR CYBR 302000Z 24009KT 210V290 15SM BKN095 19/M04 A2990 RMK CU6
SLP140 DENSITY ALT 2100FT=
METAR CYBR 301900Z 24011KT 210V340 15SM SCT090 SCT240 19/M01 A2992
RMK CU3CI1 SLP145 DENSITY ALT 2000FT=
METAR CYBR 301800Z 22008G17KT 15SM FEW065 FEW220 18/M02 A2995 RMK
CU1CI1 SLP156 DENSITY ALT 1900FT=

TAF CYBR 301738Z 3018/0106 23010KT P6SM FEW100
BECMG 3022/3024 16010KT BKN240
RMK NXT FCST BY 010000Z=
Your time UTC time
Weather data provided by Environment Canada and NAV CANADA